createdAt,value
2018-09-14T00:00:25.845Z,31.30
2018-09-14T00:02:54.366Z,31.37
2018-09-14T00:05:22.896Z,30.70
2018-09-14T00:07:51.419Z,35.17
2018-09-14T00:10:20.015Z,32.90
2018-09-14T00:12:48.610Z,32.50
2018-09-14T00:15:17.128Z,32.73
2018-09-14T00:17:45.661Z,32.10
2018-09-14T00:20:14.218Z,30.93
2018-09-14T00:22:42.770Z,31.80
2018-09-14T00:25:11.293Z,31.33
2018-09-14T00:27:39.923Z,33.70
2018-09-14T00:30:08.459Z,29.10
2018-09-14T00:32:36.977Z,33.10
2018-09-14T00:35:05.848Z,33.60
2018-09-14T00:37:34.393Z,34.00
2018-09-14T00:40:03.084Z,34.30
2018-09-14T00:42:31.626Z,34.20
2018-09-14T00:45:00.123Z,30.53
2018-09-14T00:47:28.650Z,30.37
2018-09-14T00:49:57.183Z,32.97
2018-09-14T00:52:25.778Z,31.83
2018-09-14T00:54:54.268Z,33.37
2018-09-14T00:57:22.834Z,31.50
2018-09-14T00:59:51.398Z,33.60
2018-09-14T01:02:19.894Z,29.47
2018-09-14T01:04:48.427Z,28.70
2018-09-14T01:07:16.927Z,31.30
2018-09-14T01:09:45.453Z,30.17
2018-09-14T01:12:13.962Z,35.37
2018-09-14T01:14:42.547Z,32.47
2018-09-14T01:17:11.144Z,34.50
2018-09-14T01:19:39.630Z,33.20
2018-09-14T01:22:08.116Z,32.60
2018-09-14T01:24:36.630Z,31.90
2018-09-14T01:27:05.128Z,34.60
2018-09-14T01:29:33.642Z,36.90
2018-09-14T01:32:02.224Z,31.07
2018-09-14T01:34:30.746Z,30.40
2018-09-14T01:36:59.226Z,32.30
2018-09-14T01:39:27.770Z,33.60
2018-09-14T01:41:56.268Z,32.23
2018-09-14T01:44:24.809Z,31.30
2018-09-14T01:46:53.291Z,30.20
2018-09-14T01:49:21.807Z,33.87
2018-09-14T01:51:50.314Z,35.53
2018-09-14T01:54:18.854Z,34.30
2018-09-14T01:56:47.511Z,33.97
2018-09-14T01:59:16.019Z,31.57
2018-09-14T02:01:44.546Z,32.30
2018-09-14T02:04:13.072Z,30.73
2018-09-14T02:06:41.658Z,31.60
2018-09-14T02:09:11.274Z,32.40
2018-09-14T02:11:39.849Z,33.73
2018-09-14T02:14:08.437Z,34.07
2018-09-14T02:16:36.959Z,34.73
2018-09-14T02:19:05.469Z,32.00
2018-09-14T02:21:34.015Z,30.80
2018-09-14T02:24:02.510Z,30.53
2018-09-14T02:26:31.025Z,31.27
2018-09-14T02:28:59.516Z,32.90
2018-09-14T02:31:28.050Z,30.00
2018-09-14T02:33:56.543Z,30.80
2018-09-14T02:36:25.084Z,31.13
2018-09-14T02:38:53.575Z,28.13
2018-09-14T02:41:22.102Z,29.33
2018-09-14T02:43:50.612Z,30.57
2018-09-14T02:46:19.130Z,30.40
2018-09-14T02:48:47.612Z,32.40
2018-09-14T02:51:16.226Z,30.20
2018-09-14T02:53:44.795Z,35.43
2018-09-14T02:56:13.286Z,36.80
2018-09-14T02:58:41.798Z,40.13
2018-09-14T03:01:10.284Z,42.47
2018-09-14T03:03:38.793Z,39.07
2018-09-14T03:06:07.281Z,41.50
2018-09-14T03:08:35.839Z,39.53
2018-09-14T03:11:04.398Z,35.53
2018-09-14T03:13:32.911Z,33.50
2018-09-14T03:16:01.391Z,34.43
2018-09-14T03:18:29.947Z,34.77
2018-09-14T03:20:58.444Z,35.27
2018-09-14T03:23:26.950Z,35.90
2018-09-14T03:25:55.507Z,36.70
2018-09-14T03:28:24.002Z,32.27
2018-09-14T03:30:52.507Z,32.70
2018-09-14T03:33:21.015Z,31.77
2018-09-14T03:35:49.539Z,30.80
2018-09-14T03:38:18.067Z,32.80
2018-09-14T03:40:46.584Z,34.17
2018-09-14T03:43:15.107Z,41.17
2018-09-14T03:45:43.598Z,41.90
2018-09-14T03:48:12.130Z,40.30
2018-09-14T03:50:40.608Z,42.77
2018-09-14T03:53:09.088Z,41.70
2018-09-14T03:55:44.284Z,39.53
2018-09-14T03:58:12.762Z,37.37
2018-09-14T04:00:41.267Z,35.33
2018-09-14T04:03:09.784Z,35.00
2018-09-14T04:05:38.331Z,33.00
2018-09-14T04:08:06.950Z,30.47
2018-09-14T04:10:35.484Z,28.70
2018-09-14T04:13:03.995Z,28.03
2018-09-14T04:15:32.490Z,27.43
2018-09-14T04:18:00.986Z,26.10
2018-09-14T04:20:29.482Z,27.90
2018-09-14T04:22:58.031Z,25.00
2018-09-14T04:25:26.505Z,23.70
2018-09-14T04:27:54.994Z,24.00
2018-09-14T04:30:23.494Z,25.50
2018-09-14T04:32:52.102Z,26.13
2018-09-14T04:35:20.710Z,23.97
2018-09-14T04:37:49.271Z,23.87
2018-09-14T04:40:18.111Z,25.47
2018-09-14T04:42:46.619Z,24.30
2018-09-14T04:45:15.678Z,22.97
2018-09-14T04:47:44.254Z,22.10
2018-09-14T04:50:12.786Z,24.97
2018-09-14T04:52:41.317Z,23.70
2018-09-14T04:55:09.855Z,24.80
2018-09-14T04:57:38.412Z,24.10
2018-09-14T05:00:06.951Z,25.73
2018-09-14T05:02:35.531Z,23.00
2018-09-14T05:05:04.081Z,24.80
2018-09-14T05:07:32.654Z,22.27
2018-09-14T05:10:01.277Z,22.27
2018-09-14T05:12:29.839Z,23.07
2018-09-14T05:14:58.326Z,23.27
2018-09-14T05:17:26.866Z,23.10
2018-09-14T05:19:55.370Z,22.63
2018-09-14T05:22:24.346Z,22.23
2018-09-14T05:24:52.952Z,19.33
2018-09-14T05:27:21.506Z,20.93
2018-09-14T05:29:50.058Z,21.07
2018-09-14T05:32:18.559Z,21.93
2018-09-14T05:34:47.092Z,23.53
2018-09-14T05:37:15.639Z,24.63
2018-09-14T05:39:44.201Z,25.63
2018-09-14T05:42:12.773Z,24.10
2018-09-14T05:44:41.302Z,24.33
2018-09-14T05:47:09.782Z,24.10
2018-09-14T05:49:38.325Z,24.57
2018-09-14T05:52:06.939Z,25.83
2018-09-14T05:54:35.544Z,23.67
2018-09-14T05:57:04.006Z,24.43
2018-09-14T05:59:32.588Z,23.70
2018-09-14T06:02:01.101Z,24.40
2018-09-14T06:04:29.633Z,26.97
2018-09-14T06:06:58.143Z,25.90
2018-09-14T06:09:26.680Z,25.10
2018-09-14T06:11:55.291Z,27.30
2018-09-14T06:14:23.826Z,25.50
2018-09-14T06:16:52.350Z,28.40
2018-09-14T06:19:20.891Z,24.23
2018-09-14T06:21:49.527Z,26.00
2018-09-14T06:24:18.073Z,26.10
2018-09-14T06:26:46.588Z,27.57
2018-09-14T06:29:15.127Z,27.00
2018-09-14T06:31:43.626Z,26.90
2018-09-14T06:34:12.175Z,26.10
2018-09-14T06:36:40.699Z,25.37
2018-09-14T06:39:10.856Z,25.00
2018-09-14T06:41:39.467Z,26.13
2018-09-14T06:44:08.263Z,26.60
2018-09-14T06:46:36.807Z,27.30
2018-09-14T06:49:06.503Z,28.60
2018-09-14T06:51:36.434Z,26.03
2018-09-14T06:54:05.050Z,28.20
2018-09-14T06:56:33.572Z,27.17
2018-09-14T06:59:02.093Z,27.23
2018-09-14T07:01:30.638Z,27.60
2018-09-14T07:03:59.498Z,26.70
2018-09-14T07:06:28.092Z,25.87
2018-09-14T07:08:56.574Z,26.60
2018-09-14T07:11:25.187Z,24.10
2018-09-14T07:13:54.178Z,25.77
2018-09-14T07:16:22.742Z,27.77
2018-09-14T07:18:51.218Z,25.37
2018-09-14T07:21:19.735Z,27.03
2018-09-14T07:23:48.275Z,25.40
2018-09-14T07:26:16.809Z,24.03
2018-09-14T07:28:45.375Z,24.33
2018-09-14T07:31:13.864Z,23.77
2018-09-14T07:33:42.482Z,23.30
2018-09-14T07:36:11.266Z,23.00
2018-09-14T07:38:39.830Z,21.67
2018-09-14T07:41:08.409Z,21.97
2018-09-14T07:43:36.954Z,22.70
2018-09-14T07:46:05.475Z,20.40
2018-09-14T07:48:34.039Z,21.07
2018-09-14T07:51:02.569Z,22.47
2018-09-14T07:53:31.085Z,22.43
2018-09-14T07:55:59.576Z,22.13
2018-09-14T07:58:28.110Z,21.37
2018-09-14T08:00:56.611Z,23.50
2018-09-14T08:03:25.130Z,22.90
2018-09-14T08:05:53.646Z,21.63
2018-09-14T08:08:22.157Z,22.03
2018-09-14T08:10:50.669Z,22.00
2018-09-14T08:13:19.231Z,21.43
2018-09-14T08:15:47.741Z,21.73
2018-09-14T08:18:16.258Z,21.50
2018-09-14T08:20:44.759Z,20.80
2018-09-14T08:23:13.299Z,17.40
2018-09-14T08:25:41.824Z,18.40
2018-09-14T08:28:10.306Z,17.50
2018-09-14T08:30:38.848Z,20.13
2018-09-14T08:33:07.389Z,20.20
2018-09-14T08:35:35.927Z,20.10
2018-09-14T08:38:04.433Z,18.83
2018-09-14T08:40:32.980Z,17.67
2018-09-14T08:43:01.471Z,16.50
2018-09-14T08:45:30.005Z,14.47
2018-09-14T08:47:58.576Z,16.97
2018-09-14T08:50:27.038Z,16.07
2018-09-14T08:52:55.542Z,15.83
2018-09-14T08:55:24.195Z,17.97
2018-09-14T08:57:52.739Z,18.23
2018-09-14T09:00:23.823Z,17.23
2018-09-14T09:02:53.194Z,17.97
2018-09-14T09:05:22.140Z,18.30
2018-09-14T09:07:50.949Z,18.67
2018-09-14T09:10:19.478Z,20.30
2018-09-14T09:12:48.627Z,19.87
2018-09-14T09:15:17.209Z,19.47
2018-09-14T09:17:45.791Z,20.10
2018-09-14T09:20:14.287Z,19.60
2018-09-14T09:22:42.794Z,19.80
2018-09-14T09:25:11.312Z,19.13
2018-09-14T09:27:39.856Z,20.10
2018-09-14T09:30:08.448Z,19.47
2018-09-14T09:32:37.109Z,19.27
2018-09-14T09:35:05.622Z,20.33
2018-09-14T09:37:34.283Z,19.07
2018-09-14T09:40:02.814Z,19.50
2018-09-14T09:42:31.434Z,19.67
2018-09-14T09:44:59.939Z,18.70
2018-09-14T09:47:28.497Z,17.60
2018-09-14T09:49:56.995Z,18.00
2018-09-14T09:52:25.624Z,20.50
2018-09-14T09:54:54.115Z,17.40
2018-09-14T09:57:22.663Z,16.87
2018-09-14T09:59:51.203Z,16.80
2018-09-14T10:02:25.260Z,18.00
2018-09-14T10:04:59.182Z,16.90
2018-09-14T10:07:27.735Z,16.30
2018-09-14T10:09:56.791Z,17.27
2018-09-14T10:12:25.493Z,17.67
2018-09-14T10:14:54.058Z,16.70
2018-09-14T10:17:22.581Z,16.77
2018-09-14T10:19:51.145Z,16.17
2018-09-14T10:22:19.659Z,16.77
2018-09-14T10:24:48.622Z,15.30
2018-09-14T10:27:17.223Z,16.10
2018-09-14T10:29:45.788Z,18.50
2018-09-14T10:32:14.286Z,15.87
2018-09-14T10:34:42.802Z,17.07
2018-09-14T10:37:15.880Z,17.93
2018-09-14T10:39:44.416Z,17.90
2018-09-14T10:42:12.926Z,14.60
2018-09-14T10:44:41.639Z,16.80
2018-09-14T10:47:10.155Z,15.77
2018-09-14T10:49:38.743Z,16.80
2018-09-14T10:52:07.265Z,16.60
2018-09-14T10:54:35.884Z,16.23
2018-09-14T10:57:04.418Z,17.30
2018-09-14T10:59:32.946Z,17.93
2018-09-14T11:02:01.454Z,16.90
2018-09-14T11:04:30.029Z,16.60
2018-09-14T11:06:58.521Z,19.03
2018-09-14T11:09:27.132Z,18.83
2018-09-14T11:11:55.711Z,16.33
2018-09-14T11:14:24.227Z,17.37
2018-09-14T11:16:52.745Z,15.70
2018-09-14T11:19:21.355Z,15.33
2018-09-14T11:21:49.893Z,14.17
2018-09-14T11:24:18.380Z,16.40
2018-09-14T11:26:46.987Z,14.47
2018-09-14T11:29:15.486Z,13.87
2018-09-14T11:31:43.990Z,14.93
2018-09-14T11:34:12.495Z,16.80
2018-09-14T11:36:41.039Z,16.20
2018-09-14T11:39:10.626Z,15.83
2018-09-14T11:41:39.351Z,15.03
2018-09-14T11:44:07.871Z,15.03
2018-09-14T11:46:36.457Z,15.60
2018-09-14T11:49:04.937Z,16.33
2018-09-14T11:51:33.470Z,13.90
2018-09-14T11:54:02.051Z,15.30
2018-09-14T11:56:30.550Z,14.33
2018-09-14T11:58:59.135Z,15.30
2018-09-14T12:01:27.733Z,16.97
2018-09-14T12:03:56.281Z,15.47
2018-09-14T12:06:24.843Z,15.77
2018-09-14T12:08:53.406Z,17.00
2018-09-14T12:11:22.106Z,16.10
2018-09-14T12:13:50.791Z,17.17
2018-09-14T12:16:19.202Z,16.40
2018-09-14T12:18:47.732Z,14.10
2018-09-14T12:21:16.351Z,15.63
2018-09-14T12:23:44.919Z,14.80
2018-09-14T12:26:13.431Z,16.07
2018-09-14T12:28:41.991Z,16.13
2018-09-14T12:31:10.512Z,16.20
2018-09-14T12:33:39.042Z,15.63
2018-09-14T12:36:07.668Z,15.33
2018-09-14T12:38:36.220Z,14.30
2018-09-14T12:41:04.780Z,16.67
2018-09-14T12:43:33.352Z,14.80
2018-09-14T12:46:01.963Z,13.37
2018-09-14T12:48:30.454Z,12.67
2018-09-14T12:50:59.719Z,13.00
2018-09-14T12:53:28.247Z,13.53
2018-09-14T12:55:56.880Z,12.90
2018-09-14T12:58:25.418Z,11.53
2018-09-14T13:00:54.011Z,12.90
2018-09-14T13:03:22.532Z,13.43
2018-09-14T13:05:51.218Z,13.13
2018-09-14T13:08:19.751Z,12.00
2018-09-14T13:10:48.335Z,13.60
2018-09-14T13:13:16.908Z,12.10
2018-09-14T13:15:45.487Z,10.67
2018-09-14T13:18:14.004Z,11.23
2018-09-14T13:20:42.562Z,12.10
2018-09-14T13:23:11.107Z,10.13
2018-09-14T13:25:39.838Z,10.20
2018-09-14T13:28:08.515Z,9.90
2018-09-14T13:30:37.075Z,9.07
2018-09-14T13:33:05.641Z,10.67
2018-09-14T13:35:34.159Z,10.80
2018-09-14T13:38:02.703Z,9.80
2018-09-14T13:40:31.252Z,7.40
2018-09-14T13:42:59.804Z,6.43
2018-09-14T13:45:28.318Z,6.90
2018-09-14T13:47:56.883Z,6.03
2018-09-14T13:50:25.399Z,7.73
2018-09-14T13:52:53.949Z,5.97
2018-09-14T13:55:22.438Z,5.80
2018-09-14T13:57:51.073Z,4.70
2018-09-14T14:00:19.609Z,5.47
2018-09-14T14:02:48.254Z,7.50
2018-09-14T14:05:17.133Z,6.50
2018-09-14T14:07:45.707Z,5.83
2018-09-14T14:10:14.403Z,6.97
2018-09-14T14:12:43.258Z,6.70
2018-09-14T14:15:11.792Z,5.80
2018-09-14T14:17:40.699Z,5.70
2018-09-14T14:20:09.173Z,5.63
2018-09-14T14:22:37.814Z,5.47
2018-09-14T14:25:07.202Z,5.97
2018-09-14T14:27:36.208Z,6.10
2018-09-14T14:30:04.798Z,4.90
2018-09-14T14:32:33.355Z,4.47
2018-09-14T14:35:01.960Z,4.50
2018-09-14T14:37:30.606Z,4.20
2018-09-14T14:39:59.536Z,4.27
2018-09-14T14:42:28.062Z,4.93
2018-09-14T14:44:56.937Z,4.30
2018-09-14T14:47:25.455Z,3.73
2018-09-14T14:49:54.043Z,4.33
2018-09-14T14:52:22.568Z,4.37
2018-09-14T14:54:51.219Z,5.10
2018-09-14T14:57:20.147Z,3.80
2018-09-14T14:59:48.764Z,3.90
2018-09-14T15:02:17.328Z,3.60
2018-09-14T15:04:45.878Z,3.90
2018-09-14T15:07:14.457Z,5.33
2018-09-14T15:09:43.020Z,3.97
2018-09-14T15:12:11.595Z,4.50
2018-09-14T15:14:40.244Z,4.03
2018-09-14T15:17:08.832Z,3.93
2018-09-14T15:19:37.494Z,3.73
2018-09-14T15:22:06.080Z,3.70
2018-09-14T15:24:34.661Z,4.00
2018-09-14T15:27:03.207Z,4.53
2018-09-14T15:29:31.725Z,3.87
2018-09-14T15:32:06.737Z,3.33
2018-09-14T15:34:35.246Z,4.07
2018-09-14T15:37:03.825Z,4.47
2018-09-14T15:39:32.347Z,4.03
2018-09-14T15:42:00.922Z,5.10
2018-09-14T15:44:29.477Z,2.90
2018-09-14T15:46:58.031Z,3.57
2018-09-14T15:49:26.614Z,3.90
2018-09-14T15:51:55.179Z,3.40
2018-09-14T15:54:23.698Z,3.40
2018-09-14T15:56:52.317Z,3.30
2018-09-14T15:59:21.465Z,3.57
2018-09-14T16:01:50.034Z,4.23
2018-09-14T16:04:18.563Z,3.80
2018-09-14T16:06:47.105Z,3.10
2018-09-14T16:09:15.610Z,3.33
2018-09-14T16:11:44.195Z,4.40
2018-09-14T16:14:12.769Z,3.60
2018-09-14T16:16:41.294Z,3.77
2018-09-14T16:19:09.866Z,4.23
2018-09-14T16:21:38.451Z,3.43
2018-09-14T16:24:07.299Z,3.80
2018-09-14T16:26:35.891Z,4.50
2018-09-14T16:29:04.508Z,4.17
2018-09-14T16:31:33.102Z,3.57
2018-09-14T16:34:01.648Z,3.50
2018-09-14T16:36:30.292Z,4.20
2018-09-14T16:38:59.448Z,3.40
2018-09-14T16:41:27.988Z,3.80
2018-09-14T16:43:56.549Z,3.67
2018-09-14T16:46:25.117Z,3.80
2018-09-14T16:48:53.669Z,3.97
2018-09-14T16:51:22.195Z,3.80
2018-09-14T16:53:50.730Z,3.90
2018-09-14T16:56:19.839Z,4.17
2018-09-14T16:58:48.399Z,3.40
2018-09-14T17:01:16.947Z,3.50
2018-09-14T17:03:45.582Z,3.90
2018-09-14T17:06:14.422Z,4.00
2018-09-14T17:08:43.106Z,3.60
2018-09-14T17:11:11.724Z,4.93
2018-09-14T17:13:40.295Z,4.67
2018-09-14T17:16:08.820Z,4.40
2018-09-14T17:18:37.404Z,3.43
2018-09-14T17:21:06.026Z,3.30
2018-09-14T17:23:34.584Z,3.77
2018-09-14T17:26:03.132Z,3.43
2018-09-14T17:28:31.736Z,3.50
2018-09-14T17:31:00.307Z,4.30
2018-09-14T17:33:28.856Z,3.37
2018-09-14T17:35:57.489Z,3.43
2018-09-14T17:38:26.040Z,2.90
2018-09-14T17:40:54.594Z,3.40
2018-09-14T17:43:23.131Z,2.83
2018-09-14T17:45:51.709Z,3.33
2018-09-14T17:48:20.239Z,3.50
2018-09-14T17:50:50.983Z,3.00
2018-09-14T17:53:19.546Z,4.00
2018-09-14T17:55:48.095Z,3.47
2018-09-14T17:58:16.606Z,4.03
2018-09-14T18:00:45.134Z,3.60
2018-09-14T18:03:13.722Z,9.50
2018-09-14T18:05:42.251Z,5.50
2018-09-14T18:08:10.809Z,8.57
2018-09-14T18:10:39.338Z,5.10
2018-09-14T18:13:07.922Z,3.60
2018-09-14T18:15:37.032Z,3.57
2018-09-14T18:18:05.663Z,5.40
2018-09-14T18:20:34.332Z,5.37
2018-09-14T18:23:02.858Z,5.03
2018-09-14T18:25:31.342Z,4.27
2018-09-14T18:28:00.113Z,2.63
2018-09-14T18:30:28.602Z,2.70
2018-09-14T18:32:57.151Z,2.60
2018-09-14T18:35:25.641Z,2.50
2018-09-14T18:37:54.218Z,2.10
2018-09-14T18:40:22.743Z,2.27
2018-09-14T18:42:51.306Z,2.50
2018-09-14T18:45:21.574Z,2.20
2018-09-14T18:47:50.178Z,1.90
2018-09-14T18:50:18.810Z,2.40
2018-09-14T18:52:47.380Z,2.40
2018-09-14T18:55:15.964Z,1.83
2018-09-14T18:57:44.503Z,2.13
2018-09-14T19:00:13.671Z,2.10
2018-09-14T19:02:42.219Z,1.97
2018-09-14T19:05:10.835Z,2.47
2018-09-14T19:07:39.413Z,1.87
2018-09-14T19:10:07.975Z,2.20
2018-09-14T19:12:36.693Z,2.80
2018-09-14T19:15:05.515Z,2.03
2018-09-14T19:17:34.042Z,2.07
2018-09-14T19:20:02.625Z,2.20
2018-09-14T19:22:31.187Z,2.67
2018-09-14T19:25:00.399Z,2.40
2018-09-14T19:27:28.918Z,1.90
2018-09-14T19:29:58.338Z,2.20
2018-09-14T19:32:26.817Z,2.23
2018-09-14T19:34:55.406Z,2.43
2018-09-14T19:37:23.907Z,2.20
2018-09-14T19:39:53.040Z,2.73
2018-09-14T19:42:21.598Z,2.87
2018-09-14T19:44:50.079Z,2.93
2018-09-14T19:47:18.568Z,2.50
2018-09-14T19:49:47.077Z,2.73
2018-09-14T19:52:15.577Z,2.90
2018-09-14T19:54:44.091Z,2.77
2018-09-14T19:57:12.618Z,3.10
2018-09-14T19:59:41.166Z,3.40
2018-09-14T20:02:09.755Z,3.27
2018-09-14T20:04:42.284Z,2.23
2018-09-14T20:07:12.036Z,2.97
2018-09-14T20:09:41.683Z,2.80
2018-09-14T20:12:10.351Z,2.93
2018-09-14T20:14:38.888Z,2.33
2018-09-14T20:17:07.458Z,2.80
2018-09-14T20:19:35.980Z,2.80
2018-09-14T20:22:04.646Z,2.63
2018-09-14T20:24:33.155Z,3.73
2018-09-14T20:27:01.643Z,3.47
2018-09-14T20:29:30.179Z,3.40
2018-09-14T20:31:58.658Z,2.93
2018-09-14T20:34:27.201Z,2.60
2018-09-14T20:36:55.723Z,3.23
2018-09-14T20:39:24.272Z,3.57
2018-09-14T20:41:52.823Z,3.30
2018-09-14T20:44:21.304Z,3.30
2018-09-14T20:46:49.847Z,3.73
2018-09-14T20:49:18.350Z,3.10
2018-09-14T20:51:46.976Z,3.50
2018-09-14T20:54:15.419Z,2.93
2018-09-14T20:56:43.975Z,3.57
2018-09-14T20:59:12.579Z,3.70
2018-09-14T21:01:41.122Z,3.03
2018-09-14T21:04:09.711Z,3.57
2018-09-14T21:06:38.227Z,2.90
2018-09-14T21:09:08.485Z,3.17
2018-09-14T21:11:37.041Z,3.27
2018-09-14T21:14:05.656Z,3.67
2018-09-14T21:16:34.286Z,4.30
2018-09-14T21:19:03.123Z,3.70
2018-09-14T21:21:31.630Z,3.13
2018-09-14T21:24:00.211Z,3.30
2018-09-14T21:26:28.761Z,3.23
2018-09-14T21:28:57.293Z,3.23
2018-09-14T21:31:25.807Z,3.17
2018-09-14T21:33:54.384Z,3.53
2018-09-14T21:36:22.927Z,3.80
2018-09-14T21:38:51.474Z,3.97
2018-09-14T21:41:19.975Z,3.57
2018-09-14T21:43:48.510Z,4.20
2018-09-14T21:46:17.052Z,4.07
2018-09-14T21:48:45.606Z,3.10
2018-09-14T21:51:14.133Z,3.63
2018-09-14T21:53:42.668Z,3.13
2018-09-14T21:56:11.251Z,3.30
2018-09-14T21:58:39.925Z,3.03
2018-09-14T22:01:12.682Z,4.03
2018-09-14T22:03:41.718Z,4.27
2018-09-14T22:06:10.250Z,3.10
2018-09-14T22:08:38.781Z,4.20
2018-09-14T22:11:07.293Z,3.50
2018-09-14T22:13:35.859Z,3.47
2018-09-14T22:16:04.395Z,3.17
2018-09-14T22:18:33.011Z,3.47
2018-09-14T22:21:01.543Z,3.50
2018-09-14T22:23:30.040Z,3.97
2018-09-14T22:25:58.615Z,4.27
2018-09-14T22:28:27.122Z,3.23
2018-09-14T22:30:56.206Z,3.30
2018-09-14T22:33:24.741Z,3.80
2018-09-14T22:35:53.243Z,4.03
2018-09-14T22:38:21.775Z,3.23
2018-09-14T22:40:50.315Z,3.93
2018-09-14T22:43:18.803Z,3.80
2018-09-14T22:45:47.942Z,2.97
2018-09-14T22:48:16.463Z,4.53
2018-09-14T22:50:45.004Z,3.70
2018-09-14T22:53:13.508Z,3.77
2018-09-14T22:55:42.046Z,3.60
2018-09-14T22:58:10.658Z,3.83
2018-09-14T23:00:44.992Z,3.90
2018-09-14T23:03:13.490Z,4.50
2018-09-14T23:05:42.258Z,4.50
2018-09-14T23:08:10.829Z,4.00
2018-09-14T23:10:39.322Z,3.43
2018-09-14T23:13:07.918Z,3.93
2018-09-14T23:15:36.455Z,3.37
2018-09-14T23:18:05.043Z,3.63
2018-09-14T23:20:33.522Z,4.37
2018-09-14T23:23:02.038Z,4.13
2018-09-14T23:25:30.561Z,4.20
2018-09-14T23:53:35.121Z,4.10
2018-09-14T23:56:04.179Z,3.83
2018-09-14T23:58:32.687Z,3.73
